Time;durP1;ratioP1;P1;durP2;ratioP2;P2;SDS_P1;SDS_P2;PMS_P1;PMS_P2;Temp;Humidity;BMP_temperature;BMP_pressure;BME280_temperature;BME280_humidity;BME280_pressure;Samples;Min_cycle;Max_cycle;Signal;HPM_P1;HPM_P2
2022/05/25 00:00:55;;;;;;;14.15;6.20;;;22.80;96.70;;;;;;5049050;28;20438;-77
2022/05/25 00:03:24;;;;;;;13.00;5.70;;;22.80;96.70;;;;;;5057246;28;20611;-77
2022/05/25 00:05:52;;;;;;;10.10;5.13;;;22.80;96.70;;;;;;5057241;28;20164;-77
2022/05/25 00:08:21;;;;;;;12.63;5.53;;;22.70;96.70;;;;;;5053060;28;20033;-77
2022/05/25 00:10:50;;;;;;;10.32;5.82;;;22.70;96.70;;;;;;5051951;28;20049;-77
2022/05/25 00:13:18;;;;;;;12.57;6.32;;;22.80;96.70;;;;;;5056931;28;20145;-77
2022/05/25 00:15:47;;;;;;;19.25;7.00;;;22.90;96.70;;;;;;5052128;28;20045;-77
2022/05/25 00:18:15;;;;;;;13.90;5.97;;;22.90;96.70;;;;;;5054423;28;20075;-77
2022/05/25 00:20:43;;;;;;;11.07;5.93;;;22.90;96.70;;;;;;5052347;28;20067;-77
2022/05/25 00:23:11;;;;;;;8.60;5.10;;;22.90;96.70;;;;;;5038056;28;20103;-77
2022/05/25 00:25:40;;;;;;;12.18;6.10;;;22.80;96.70;;;;;;5052844;28;20075;-77
2022/05/25 00:28:25;;;;;;;14.02;6.18;;;22.70;96.70;;;;;;5052674;28;20110;-77
2022/05/25 00:30:54;;;;;;;10.23;6.13;;;22.60;96.70;;;;;;5055739;28;20036;-77
2022/05/25 00:33:23;;;;;;;13.00;6.10;;;22.50;96.70;;;;;;5052023;28;20068;-75
2022/05/25 00:35:51;;;;;;;14.75;6.57;;;22.50;96.70;;;;;;5049391;28;20818;-76
2022/05/25 00:38:26;;;;;;;9.88;5.93;;;22.50;96.70;;;;;;5035336;28;20075;-77
2022/05/25 00:40:56;;;;;;;12.40;6.35;;;22.50;96.70;;;;;;5053708;28;20049;-77
2022/05/25 00:43:26;;;;;;;12.88;6.80;;;22.50;96.70;;;;;;5051492;28;20044;-77
2022/05/25 00:46:00;;;;;;;10.48;5.38;;;22.50;96.70;;;;;;5064017;28;20491;-77
2022/05/25 00:48:33;;;;;;;9.02;5.63;;;22.40;96.70;;;;;;5051358;28;20510;-76
2022/05/25 00:51:15;;;;;;;9.55;5.68;;;22.40;96.70;;;;;;5057735;28;20058;-76
2022/05/25 00:53:48;;;;;;;12.57;5.53;;;22.40;96.70;;;;;;5054547;28;20119;-76
2022/05/25 00:56:19;;;;;;;9.85;5.35;;;22.40;96.70;;;;;;5048295;28;20060;-76
2022/05/25 00:58:53;;;;;;;13.13;5.50;;;22.40;96.70;;;;;;5056852;28;20102;-76
2022/05/25 01:01:22;;;;;;;9.90;5.82;;;22.50;96.70;;;;;;5056372;28;20040;-76
2022/05/25 01:03:50;;;;;;;8.93;5.20;;;22.50;96.70;;;;;;5058971;28;20090;-76
2022/05/25 01:06:28;;;;;;;8.60;4.60;;;22.50;96.70;;;;;;5038848;28;20143;-76
2022/05/25 01:09:05;;;;;;;10.60;5.10;;;22.50;96.70;;;;;;5049725;28;20049;-76
2022/05/25 01:11:48;;;;;;;10.13;5.22;;;22.40;96.70;;;;;;5041946;28;20087;-76
2022/05/25 01:14:29;;;;;;;11.70;5.60;;;22.50;96.70;;;;;;5053539;28;20094;-76
2022/05/25 01:17:08;;;;;;;10.77;5.38;;;22.50;96.70;;;;;;5053080;28;20524;-76
2022/05/25 01:20:02;;;;;;;9.43;5.32;;;22.50;96.70;;;;;;5055365;28;20045;-76
2022/05/25 01:22:54;;;;;;;9.82;5.70;;;22.40;96.70;;;;;;5040282;28;20600;-76
2022/05/25 01:25:39;;;;;;;10.82;5.88;;;22.40;96.70;;;;;;5053607;28;20045;-77
2022/05/25 01:28:14;;;;;;;10.82;5.50;;;22.30;96.70;;;;;;5054578;28;20045;-76
2022/05/25 01:30:51;;;;;;;7.72;4.97;;;22.10;96.70;;;;;;5035274;28;20107;-76
2022/05/25 01:33:27;;;;;;;13.80;5.85;;;22.20;96.70;;;;;;5053572;28;20072;-76
2022/05/25 01:36:01;;;;;;;10.07;5.47;;;22.20;96.70;;;;;;5050905;28;20509;-76
2022/05/25 01:38:47;;;;;;;10.27;4.72;;;22.20;96.70;;;;;;5054192;28;20789;-76
2022/05/25 01:41:20;;;;;;;9.20;4.90;;;22.20;96.70;;;;;;5019350;28;20723;-76
2022/05/25 01:43:57;;;;;;;12.52;5.22;;;22.10;96.70;;;;;;5001990;28;20135;-77
2022/05/25 01:46:31;;;;;;;8.30;5.40;;;22.20;96.70;;;;;;5019212;28;20580;-75
2022/05/25 01:49:04;;;;;;;11.10;4.90;;;22.20;96.70;;;;;;5020261;28;20057;-77
2022/05/25 01:51:35;;;;;;;12.80;5.30;;;22.20;96.70;;;;;;5014087;28;20958;-76
2022/05/25 01:54:05;;;;;;;10.68;4.95;;;22.20;96.70;;;;;;5016815;28;20049;-77
2022/05/25 01:56:35;;;;;;;12.95;5.18;;;22.20;96.70;;;;;;5001772;28;20143;-77
2022/05/25 01:59:09;;;;;;;10.32;4.47;;;22.10;96.70;;;;;;5020218;28;20050;-77
2022/05/25 02:01:47;;;;;;;12.25;5.32;;;22.10;96.70;;;;;;4986234;28;20056;-77
2022/05/25 02:04:22;;;;;;;12.38;5.40;;;22.10;96.70;;;;;;5007227;28;20046;-76
2022/05/25 02:07:18;;;;;;;11.88;5.75;;;22.10;96.70;;;;;;5020429;28;20088;-78
2022/05/25 02:10:06;;;;;;;11.50;5.13;;;22.00;96.70;;;;;;4995893;28;20542;-77
2022/05/25 02:12:52;;;;;;;12.00;6.13;;;22.00;96.70;;;;;;5034892;28;20060;-77
2022/05/25 02:15:27;;;;;;;11.43;5.50;;;22.00;96.70;;;;;;5056088;28;20055;-77
2022/05/25 02:18:06;;;;;;;10.75;6.22;;;22.00;96.70;;;;;;5060212;28;20071;-76
2022/05/25 02:20:43;;;;;;;11.15;5.05;;;22.00;96.70;;;;;;5056389;28;20056;-77
2022/05/25 02:23:19;;;;;;;15.02;6.45;;;21.90;96.70;;;;;;5066405;28;20052;-76
2022/05/25 02:25:53;;;;;;;9.70;5.53;;;21.80;96.70;;;;;;5052878;28;20124;-76
2022/05/25 02:28:28;;;;;;;10.05;5.70;;;21.70;96.70;;;;;;5056761;28;20746;-77
2022/05/25 02:31:00;;;;;;;10.55;5.82;;;21.70;96.70;;;;;;5058254;28;20045;-77
2022/05/25 02:33:34;;;;;;;10.95;5.28;;;21.70;96.70;;;;;;5057005;28;20049;-77
2022/05/25 02:36:02;;;;;;;10.90;5.93;;;21.70;96.70;;;;;;5058044;28;20052;-77
2022/05/25 02:38:30;;;;;;;8.63;5.07;;;21.60;96.70;;;;;;5041425;28;20067;-77
2022/05/25 02:41:07;;;;;;;10.27;5.70;;;21.60;96.70;;;;;;5055643;28;20087;-77
2022/05/25 02:43:36;;;;;;;11.05;5.70;;;21.60;96.70;;;;;;5057797;28;20138;-77
2022/05/25 02:46:04;;;;;;;10.80;5.70;;;21.60;96.70;;;;;;5057852;28;20457;-78
2022/05/25 02:48:34;;;;;;;10.45;5.35;;;21.60;96.70;;;;;;5050724;28;20052;-77
2022/05/25 02:51:02;;;;;;;10.88;5.45;;;21.60;96.70;;;;;;5062171;28;20047;-76
2022/05/25 02:53:30;;;;;;;15.23;6.57;;;21.60;96.70;;;;;;5057347;28;20044;-77
2022/05/25 02:55:59;;;;;;;12.30;5.60;;;21.50;96.70;;;;;;5058329;28;20795;-77
2022/05/25 02:58:34;;;;;;;10.30;6.05;;;21.50;96.70;;;;;;5055510;28;20075;-77
2022/05/25 03:01:03;;;;;;;12.95;6.88;;;21.40;96.70;;;;;;5056277;28;20052;-77
2022/05/25 03:03:35;;;;;;;12.30;6.05;;;21.40;96.70;;;;;;5056082;28;20055;-77
2022/05/25 03:06:04;;;;;;;12.80;6.53;;;21.40;96.70;;;;;;5043928;28;20116;-76
2022/05/25 03:08:33;;;;;;;9.32;6.53;;;21.40;96.70;;;;;;5056259;28;20045;-77
2022/05/25 03:11:02;;;;;;;10.98;6.55;;;21.40;96.70;;;;;;5049719;28;20048;-77
2022/05/25 03:13:31;;;;;;;9.38;5.95;;;21.30;96.70;;;;;;5057050;28;20072;-77
2022/05/25 03:16:00;;;;;;;13.30;6.80;;;21.30;96.70;;;;;;5055544;28;20378;-77
2022/05/25 03:18:28;;;;;;;11.23;6.15;;;21.30;96.70;;;;;;5051020;28;20052;-77
2022/05/25 03:20:58;;;;;;;9.32;5.80;;;21.40;96.70;;;;;;5053102;28;20053;-77
2022/05/25 03:23:26;;;;;;;13.27;7.10;;;21.40;96.70;;;;;;5058540;28;20044;-77
2022/05/25 03:25:54;;;;;;;8.45;6.15;;;21.40;96.70;;;;;;5051599;28;20041;-77
2022/05/25 03:28:22;;;;;;;12.27;6.85;;;21.50;96.70;;;;;;5056165;28;20060;-77
2022/05/25 03:30:50;;;;;;;10.82;6.68;;;21.50;96.70;;;;;;5056369;28;20045;-77
2022/05/25 03:33:19;;;;;;;12.15;6.75;;;21.40;96.70;;;;;;5055860;28;20139;-77
2022/05/25 03:35:47;;;;;;;15.20;7.05;;;21.40;96.70;;;;;;5039381;28;20135;-77
2022/05/25 03:38:16;;;;;;;14.02;7.30;;;21.30;96.70;;;;;;5055925;28;20036;-77
2022/05/25 03:40:44;;;;;;;11.55;6.43;;;21.30;96.70;;;;;;5053697;28;20057;-77
2022/05/25 03:43:16;;;;;;;14.25;7.25;;;21.30;96.70;;;;;;5051251;28;20131;-77
2022/05/25 03:45:44;;;;;;;13.88;7.18;;;21.30;96.70;;;;;;5036283;28;20053;-77
2022/05/25 03:48:13;;;;;;;13.45;6.78;;;21.30;96.70;;;;;;5055070;28;20127;-77
2022/05/25 03:50:42;;;;;;;12.18;6.95;;;21.30;96.70;;;;;;5051225;28;20123;-77
2022/05/25 03:53:14;;;;;;;11.20;6.88;;;21.30;96.70;;;;;;5045645;28;20064;-77
2022/05/25 03:55:44;;;;;;;18.00;7.38;;;21.50;96.70;;;;;;5052379;28;20392;-77
2022/05/25 03:58:12;;;;;;;13.18;7.05;;;21.50;96.70;;;;;;5056117;28;20052;-77
2022/05/25 04:00:40;;;;;;;14.77;7.03;;;21.50;96.70;;;;;;5052228;28;20117;-76
2022/05/25 04:03:12;;;;;;;11.63;7.53;;;21.50;96.70;;;;;;5055112;28;20209;-77
2022/05/25 04:05:41;;;;;;;11.93;7.35;;;21.50;96.70;;;;;;5061300;28;20037;-77
2022/05/25 04:08:09;;;;;;;12.32;6.90;;;21.50;96.70;;;;;;5045407;28;20072;-77
2022/05/25 04:10:38;;;;;;;12.90;7.60;;;21.50;96.70;;;;;;5055524;28;20039;-78
2022/05/25 04:13:08;;;;;;;11.63;6.85;;;21.50;96.70;;;;;;5051272;28;20596;-78
2022/05/25 04:15:36;;;;;;;12.32;7.38;;;21.50;96.70;;;;;;5054736;28;20056;-77
2022/05/25 04:18:04;;;;;;;11.65;7.10;;;21.60;96.70;;;;;;5058393;28;20049;-77
2022/05/25 04:20:35;;;;;;;13.48;7.40;;;21.60;96.70;;;;;;5046610;28;20067;-76
2022/05/25 04:23:13;;;;;;;12.82;6.68;;;21.60;96.70;;;;;;5037499;28;20611;-77
2022/05/25 04:25:42;;;;;;;12.90;7.38;;;21.70;96.70;;;;;;5039721;28;20059;-76
2022/05/25 04:28:12;;;;;;;11.73;6.65;;;21.70;96.70;;;;;;5040371;28;20049;-77
2022/05/25 04:30:40;;;;;;;14.73;7.00;;;21.70;96.70;;;;;;5057397;28;20036;-77
2022/05/25 04:33:07;;;;;;;10.85;6.72;;;21.80;96.70;;;;;;5059906;28;20067;-77
2022/05/25 04:35:36;;;;;;;11.63;6.47;;;21.70;96.70;;;;;;5039935;28;20118;-77
2022/05/25 04:38:06;;;;;;;9.80;6.55;;;21.80;96.70;;;;;;5060464;28;20070;-77
2022/05/25 04:40:36;;;;;;;11.45;6.00;;;21.70;96.70;;;;;;5049674;28;20053;-77
2022/05/25 04:43:12;;;;;;;11.05;6.47;;;21.70;96.70;;;;;;5052885;28;20045;-77
2022/05/25 04:45:45;;;;;;;11.70;6.20;;;21.70;96.70;;;;;;5051015;28;20053;-78
2022/05/25 04:48:14;;;;;;;13.73;6.32;;;21.70;96.70;;;;;;5037000;28;20052;-77
2022/05/25 04:50:44;;;;;;;11.43;5.90;;;21.80;96.70;;;;;;5056413;28;20044;-77
2022/05/25 04:53:15;;;;;;;14.15;6.32;;;21.80;96.70;;;;;;5053255;28;20049;-77
2022/05/25 04:58:33;;;;;;;12.80;6.72;;;21.70;96.70;;;;;;5053406;28;20514;-77
2022/05/25 05:01:04;;;;;;;16.00;7.07;;;21.60;96.70;;;;;;5058818;28;20106;-77
2022/05/25 05:03:32;;;;;;;11.85;6.50;;;21.60;96.70;;;;;;5050153;28;20044;-77
2022/05/25 05:06:01;;;;;;;11.55;6.22;;;21.60;96.70;;;;;;5050804;28;20049;-77
2022/05/25 05:08:29;;;;;;;9.70;5.63;;;21.70;96.70;;;;;;5049667;28;20041;-77
2022/05/25 05:11:04;;;;;;;10.82;6.03;;;21.80;96.70;;;;;;5051881;28;20954;-77
2022/05/25 05:13:32;;;;;;;11.85;5.78;;;21.80;96.70;;;;;;5052433;28;20053;-77
2022/05/25 05:16:06;;;;;;;12.13;6.75;;;21.80;96.70;;;;;;5054950;28;20807;-77
2022/05/25 05:18:35;;;;;;;9.38;6.13;;;21.90;96.70;;;;;;5055231;28;20067;-77
2022/05/25 05:21:26;;;;;;;15.90;6.50;;;21.90;96.70;;;;;;5057119;28;20048;-78
2022/05/25 05:23:54;;;;;;;9.95;6.45;;;22.00;96.70;;;;;;5053642;28;20045;-77
2022/05/25 05:26:22;;;;;;;13.18;6.55;;;21.90;96.70;;;;;;5053261;28;20047;-77
2022/05/25 05:28:53;;;;;;;11.05;6.57;;;22.00;96.70;;;;;;5059287;28;20044;-77
2022/05/25 05:31:23;;;;;;;14.73;6.78;;;22.00;96.70;;;;;;5054127;28;20064;-77
2022/05/25 05:33:51;;;;;;;10.32;6.90;;;22.10;96.70;;;;;;5057489;28;20086;-78
2022/05/25 05:36:25;;;;;;;14.27;7.70;;;22.10;96.70;;;;;;5057833;28;20067;-77
2022/05/25 05:38:57;;;;;;;15.27;7.38;;;22.20;96.70;;;;;;5062200;28;20137;-78
2022/05/25 05:41:30;;;;;;;11.80;7.68;;;22.20;96.70;;;;;;5058620;28;20132;-76
2022/05/25 05:43:58;;;;;;;14.55;7.63;;;22.30;96.70;;;;;;5052863;28;20060;-76
2022/05/25 05:46:29;;;;;;;10.80;7.40;;;22.30;96.70;;;;;;5055556;28;20071;-76
2022/05/25 05:48:57;;;;;;;10.88;7.63;;;22.40;96.70;;;;;;5057649;28;20053;-78
2022/05/25 05:51:28;;;;;;;12.63;7.10;;;22.40;96.70;;;;;;5058458;28;20132;-80
2022/05/25 05:53:57;;;;;;;12.48;7.40;;;22.40;96.70;;;;;;5054341;28;20169;-78
2022/05/25 05:56:26;;;;;;;16.00;7.43;;;22.40;96.70;;;;;;5052861;28;20048;-78
2022/05/25 05:58:55;;;;;;;13.50;7.15;;;22.40;96.70;;;;;;5058177;28;20045;-78
2022/05/25 06:01:23;;;;;;;11.80;7.80;;;22.40;96.70;;;;;;5054090;28;20049;-76
2022/05/25 06:03:52;;;;;;;12.77;7.30;;;22.50;96.70;;;;;;5041427;28;20045;-77
2022/05/25 06:06:23;;;;;;;13.45;6.95;;;22.50;96.70;;;;;;5054590;28;20037;-77
2022/05/25 06:08:51;;;;;;;14.20;7.35;;;22.50;96.70;;;;;;5052911;28;20072;-77
2022/05/25 06:11:20;;;;;;;15.18;7.50;;;22.60;96.70;;;;;;5061509;28;20052;-77
2022/05/25 06:13:49;;;;;;;12.75;7.70;;;22.70;96.70;;;;;;5053894;28;20094;-77
2022/05/25 06:21:57;;;;;;;14.77;7.07;;;22.80;96.70;;;;;;5053835;28;20150;-76
2022/05/25 06:24:27;;;;;;;14.30;7.00;;;22.90;96.70;;;;;;5056925;28;20243;-79
2022/05/25 06:26:55;;;;;;;14.43;6.82;;;22.90;96.70;;;;;;5059894;28;20091;-77
2022/05/25 06:29:23;;;;;;;14.73;6.93;;;22.80;96.70;;;;;;5049064;28;20053;-77
2022/05/25 06:31:52;;;;;;;15.05;6.82;;;22.90;96.70;;;;;;5057567;28;20641;-77
2022/05/25 06:34:21;;;;;;;11.68;6.53;;;22.90;96.70;;;;;;5053768;28;20041;-78
2022/05/25 06:36:49;;;;;;;11.70;6.80;;;22.90;96.70;;;;;;5045081;28;20131;-76
2022/05/25 06:39:17;;;;;;;13.48;7.38;;;23.00;96.70;;;;;;5059373;28;21345;-76
2022/05/25 06:41:46;;;;;;;15.40;7.90;;;23.10;96.70;;;;;;5057287;28;20052;-76
2022/05/25 06:44:15;;;;;;;12.38;6.38;;;23.10;96.70;;;;;;5053235;28;20182;-75
2022/05/25 06:46:43;;;;;;;13.43;6.80;;;23.20;96.70;;;;;;5056037;28;20045;-76
2022/05/25 06:49:11;;;;;;;14.23;7.35;;;23.30;96.70;;;;;;5053583;28;20045;-76
2022/05/25 06:51:41;;;;;;;12.57;7.00;;;23.40;96.70;;;;;;5056648;28;20052;-77
2022/05/25 06:54:09;;;;;;;14.70;6.95;;;23.40;96.70;;;;;;5055196;28;20041;-77
2022/05/25 06:56:37;;;;;;;11.93;6.45;;;23.40;96.70;;;;;;5053364;28;20094;-77
2022/05/25 06:59:06;;;;;;;12.55;6.63;;;23.50;96.70;;;;;;5054381;28;20048;-77
2022/05/25 07:01:36;;;;;;;12.02;5.53;;;23.60;96.70;;;;;;5053615;28;20056;-76
2022/05/25 07:04:05;;;;;;;9.38;5.63;;;23.70;96.70;;;;;;5057984;28;20037;-77
2022/05/25 07:06:35;;;;;;;13.00;5.97;;;23.70;96.70;;;;;;5059745;28;20063;-77
2022/05/25 07:09:06;;;;;;;14.48;5.85;;;23.90;96.70;;;;;;5039116;28;20506;-77
2022/05/25 07:11:36;;;;;;;12.93;6.32;;;23.90;96.70;;;;;;5057746;28;20669;-76
2022/05/25 07:14:05;;;;;;;9.15;5.68;;;23.90;96.70;;;;;;5056532;28;20052;-76
2022/05/25 07:16:33;;;;;;;10.20;5.85;;;24.00;96.70;;;;;;5044822;28;20098;-76
2022/05/25 07:19:01;;;;;;;10.32;5.95;;;24.00;96.70;;;;;;5054306;28;20041;-78
2022/05/25 07:21:32;;;;;;;12.10;6.32;;;24.10;96.70;;;;;;5054939;28;20122;-77
2022/05/25 07:24:01;;;;;;;10.48;5.13;;;24.20;96.70;;;;;;5054954;28;20094;-77
2022/05/25 07:26:33;;;;;;;10.25;5.70;;;24.20;96.70;;;;;;5036948;28;20041;-77
2022/05/25 07:29:01;;;;;;;14.40;6.60;;;24.20;96.70;;;;;;5059068;28;20640;-78
2022/05/25 07:31:37;;;;;;;15.90;5.90;;;24.30;96.70;;;;;;5053842;28;20118;-78
2022/05/25 07:34:06;;;;;;;12.02;5.78;;;24.40;96.70;;;;;;5057740;28;20064;-77
2022/05/25 07:36:35;;;;;;;11.55;5.63;;;24.30;96.70;;;;;;5058006;28;20524;-78
2022/05/25 07:39:05;;;;;;;9.73;5.35;;;24.30;96.70;;;;;;5055058;28;20041;-77
2022/05/25 07:41:39;;;;;;;11.82;5.60;;;24.30;96.70;;;;;;5056583;28;20053;-77
2022/05/25 07:44:12;;;;;;;15.65;5.45;;;24.40;96.70;;;;;;5051880;28;20044;-77
2022/05/25 07:46:40;;;;;;;10.52;5.32;;;24.40;96.70;;;;;;5051038;28;20092;-76
2022/05/25 07:49:08;;;;;;;10.57;5.88;;;24.40;96.70;;;;;;5035955;28;20107;-77
2022/05/25 07:51:36;;;;;;;12.73;5.80;;;24.60;96.70;;;;;;5058171;28;20052;-77
2022/05/25 07:54:05;;;;;;;9.43;5.38;;;24.60;96.70;;;;;;5039348;28;20636;-77
2022/05/25 07:56:37;;;;;;;10.20;5.40;;;24.70;96.70;;;;;;5060666;28;20121;-77
2022/05/25 07:59:07;;;;;;;10.88;4.78;;;24.70;96.70;;;;;;5038378;28;20044;-78
2022/05/25 08:07:14;;;;;;;12.00;5.35;;;25.00;96.70;;;;;;5056829;28;20049;-76
2022/05/25 08:09:42;;;;;;;8.10;4.88;;;24.90;96.70;;;;;;5060469;28;20106;-75
2022/05/25 08:12:13;;;;;;;8.73;4.78;;;24.90;96.70;;;;;;5051777;28;20056;-76
2022/05/25 08:14:41;;;;;;;8.10;4.47;;;24.90;96.70;;;;;;5060332;28;20520;-77
2022/05/25 08:17:09;;;;;;;10.25;5.03;;;25.10;96.70;;;;;;5056829;28;20066;-76
2022/05/25 08:19:38;;;;;;;10.07;4.45;;;25.20;96.70;;;;;;5050498;28;20107;-77
2022/05/25 08:22:07;;;;;;;12.63;4.95;;;25.20;96.70;;;;;;5035336;28;20056;-76
2022/05/25 08:24:35;;;;;;;8.85;4.30;;;25.30;96.70;;;;;;5055453;28;20049;-77
2022/05/25 08:27:06;;;;;;;10.35;4.18;;;25.40;96.70;;;;;;5054493;28;20048;-77
2022/05/25 08:30:03;;;;;;;8.25;4.47;;;25.50;96.70;;;;;;5055352;28;20102;-77
2022/05/25 08:32:32;;;;;;;9.38;4.70;;;25.70;96.70;;;;;;5050485;28;20049;-77
2022/05/25 08:35:00;;;;;;;8.57;4.82;;;25.80;96.70;;;;;;5053315;28;20603;-74
2022/05/25 08:37:28;;;;;;;10.68;4.22;;;25.80;96.70;;;;;;5058479;28;20080;-75
2022/05/25 08:39:56;;;;;;;9.93;5.00;;;25.80;96.70;;;;;;5035780;28;20037;-79
2022/05/25 08:42:27;;;;;;;7.38;4.45;;;25.90;96.70;;;;;;5041558;28;20440;-76
2022/05/25 08:44:56;;;;;;;9.05;4.38;;;25.90;96.70;;;;;;5050762;28;20692;-78
2022/05/25 08:47:25;;;;;;;9.55;4.28;;;26.00;96.70;;;;;;5060132;28;20048;-79
2022/05/25 08:49:55;;;;;;;10.20;4.50;;;26.10;96.70;;;;;;5036143;28;20109;-79
2022/05/25 08:52:33;;;;;;;8.25;4.75;;;26.10;96.70;;;;;;5056283;28;20048;-79
2022/05/25 08:55:04;;;;;;;11.65;4.70;;;26.10;96.70;;;;;;5053389;28;20048;-76
2022/05/25 08:57:37;;;;;;;8.80;4.22;;;26.00;96.70;;;;;;5039632;28;20098;-75
2022/05/25 09:00:08;;;;;;;7.85;4.88;;;25.80;96.70;;;;;;5050310;28;20053;-75
2022/05/25 09:02:46;;;;;;;8.05;4.60;;;26.00;96.70;;;;;;5053496;28;20485;-75
2022/05/25 09:05:20;;;;;;;7.90;4.25;;;26.00;96.70;;;;;;5055091;28;20052;-74
2022/05/25 09:07:57;;;;;;;10.35;4.75;;;26.20;96.70;;;;;;5048152;28;20055;-75
2022/05/25 09:10:28;;;;;;;8.75;4.70;;;26.30;96.70;;;;;;5043377;28;20498;-74
2022/05/25 09:13:00;;;;;;;10.20;4.55;;;26.40;96.70;;;;;;5053877;28;20132;-76
2022/05/25 09:15:33;;;;;;;12.15;4.70;;;26.40;96.70;;;;;;5055736;28;20688;-76
2022/05/25 09:18:06;;;;;;;11.98;4.80;;;26.40;96.70;;;;;;5055345;28;20051;-76
2022/05/25 09:20:42;;;;;;;10.00;4.97;;;26.40;96.70;;;;;;5059504;28;20040;-76
2022/05/25 09:23:17;;;;;;;7.63;4.68;;;26.40;96.70;;;;;;5049684;28;20045;-77
2022/05/25 09:25:46;;;;;;;7.25;4.95;;;26.30;96.70;;;;;;5053043;28;21066;-77
2022/05/25 09:28:17;;;;;;;9.57;5.22;;;26.40;96.70;;;;;;5039097;28;20048;-76
2022/05/25 09:30:49;;;;;;;7.63;4.57;;;26.40;96.70;;;;;;5050173;28;20068;-76
2022/05/25 09:33:27;;;;;;;12.05;5.53;;;26.30;96.70;;;;;;5055535;28;20053;-76
2022/05/25 09:36:02;;;;;;;9.80;5.35;;;26.40;96.70;;;;;;5055687;28;20044;-75
2022/05/25 09:39:14;;;;;;;7.47;4.70;;;26.20;96.70;;;;;;5052815;28;21333;-75
2022/05/25 09:41:56;;;;;;;8.10;4.18;;;26.20;96.70;;;;;;5020362;28;20071;-76
2022/05/25 09:44:26;;;;;;;11.95;4.43;;;26.30;96.70;;;;;;5021039;28;20507;-77
2022/05/25 09:47:00;;;;;;;12.60;4.82;;;26.40;96.70;;;;;;5010710;28;20046;-77
2022/05/25 09:49:37;;;;;;;6.97;4.13;;;26.30;96.70;;;;;;5013988;28;20108;-76
2022/05/25 09:52:11;;;;;;;9.45;4.07;;;26.50;96.70;;;;;;5012561;28;20041;-76
2022/05/25 09:54:46;;;;;;;9.18;4.10;;;26.60;96.70;;;;;;5013498;28;20107;-76
2022/05/25 09:57:25;;;;;;;11.05;4.90;;;26.80;96.70;;;;;;5022249;28;20050;-76
2022/05/25 10:00:00;;;;;;;9.10;4.28;;;26.80;96.70;;;;;;5044077;28;20064;-78
2022/05/25 10:02:33;;;;;;;7.78;3.83;;;26.90;96.70;;;;;;5051925;28;20045;-76
2022/05/25 10:05:15;;;;;;;8.75;4.38;;;27.00;96.70;;;;;;5053493;28;20036;-76
2022/05/25 10:07:52;;;;;;;9.10;4.65;;;26.90;96.70;;;;;;5056096;28;20701;-76
2022/05/25 10:10:29;;;;;;;8.90;4.63;;;26.90;96.70;;;;;;5050503;28;20460;-76
2022/05/25 10:13:04;;;;;;;6.68;4.70;;;27.00;96.70;;;;;;5056243;28;20052;-75
2022/05/25 10:15:35;;;;;;;9.35;4.20;;;27.10;96.70;;;;;;5052637;28;20090;-77
2022/05/25 10:18:04;;;;;;;6.15;4.47;;;27.20;96.70;;;;;;5058335;28;20049;-76
2022/05/25 10:20:45;;;;;;;8.18;4.55;;;27.30;96.70;;;;;;5051835;28;20036;-77
2022/05/25 10:23:21;;;;;;;9.35;4.63;;;27.50;96.70;;;;;;5050730;28;20044;-76
2022/05/25 10:25:52;;;;;;;10.45;4.25;;;27.60;96.70;;;;;;5040823;28;20058;-77
2022/05/25 10:28:30;;;;;;;11.02;4.60;;;27.70;96.70;;;;;;5059281;28;20127;-76
2022/05/25 10:37:00;;;;;;;13.05;5.38;;;27.90;96.70;;;;;;5055592;28;20044;-76
2022/05/25 10:39:35;;;;;;;8.48;4.72;;;27.70;96.70;;;;;;5055197;28;20658;-76
2022/05/25 10:42:15;;;;;;;9.33;4.37;;;27.60;96.70;;;;;;5061763;28;20413;-76
2022/05/25 10:44:57;;;;;;;8.90;4.22;;;27.60;96.70;;;;;;5041039;28;20044;-76
2022/05/25 10:47:52;;;;;;;6.85;4.07;;;27.70;96.70;;;;;;5064297;28;20044;-76
2022/05/25 10:50:23;;;;;;;8.80;4.68;;;28.00;96.70;;;;;;5039981;28;20499;-77
2022/05/25 10:52:56;;;;;;;11.77;4.97;;;28.10;96.70;;;;;;5060599;28;20041;-76
2022/05/25 10:55:27;;;;;;;9.85;4.32;;;28.00;96.70;;;;;;5058706;28;20098;-76
2022/05/25 10:58:23;;;;;;;8.30;4.07;;;28.00;96.70;;;;;;5064241;28;20048;-76
2022/05/25 11:01:22;;;;;;;8.20;4.60;;;28.00;96.70;;;;;;5048102;28;20041;-77
2022/05/25 11:04:07;;;;;;;8.88;4.60;;;28.10;96.70;;;;;;5055938;28;20036;-77
2022/05/25 11:06:52;;;;;;;8.93;4.15;;;28.00;96.70;;;;;;5019439;28;20103;-76
2022/05/25 11:10:10;;;;;;;8.23;4.38;;;28.10;96.70;;;;;;5041373;28;20536;-76
2022/05/25 11:12:48;;;;;;;6.30;4.07;;;28.10;96.70;;;;;;5051892;28;20090;-76
2022/05/25 11:15:24;;;;;;;9.88;4.82;;;28.20;96.70;;;;;;5057737;28;20045;-77
2022/05/25 11:18:22;;;;;;;7.60;3.88;;;28.50;96.70;;;;;;5056503;28;20434;-76
2022/05/25 11:21:02;;;;;;;5.53;4.20;;;28.70;96.70;;;;;;5054722;28;20056;-77
2022/05/25 11:24:01;;;;;;;6.00;4.15;;;28.50;96.70;;;;;;5052302;28;20048;-76
2022/05/25 11:26:49;;;;;;;8.50;4.07;;;28.60;96.70;;;;;;5037223;28;20048;-77
2022/05/25 11:29:29;;;;;;;6.95;4.30;;;28.60;96.70;;;;;;5040956;28;20052;-77
2022/05/25 11:32:07;;;;;;;6.80;4.20;;;28.60;96.70;;;;;;5060060;28;20055;-77
2022/05/25 11:34:47;;;;;;;8.80;4.97;;;28.80;96.70;;;;;;5052431;28;20051;-76
2022/05/25 11:37:28;;;;;;;12.10;4.30;;;29.00;96.70;;;;;;5051782;28;20048;-77
2022/05/25 11:40:03;;;;;;;9.45;4.00;;;29.30;96.70;;;;;;5055785;28;20513;-76
2022/05/25 11:43:04;;;;;;;6.82;4.20;;;29.30;96.70;;;;;;5055272;28;20060;-76
2022/05/25 11:45:48;;;;;;;9.73;4.25;;;29.30;96.70;;;;;;5053803;28;20481;-76
2022/05/25 11:49:01;;;;;;;8.70;4.60;;;29.40;96.70;;;;;;5042118;28;20067;-77
2022/05/25 11:51:39;;;;;;;8.85;4.38;;;29.30;96.70;;;;;;5050015;28;20052;-77
2022/05/25 11:54:24;;;;;;;12.00;5.00;;;29.00;96.70;;;;;;5056125;28;20049;-77
2022/05/25 11:57:09;;;;;;;11.52;4.45;;;29.10;96.70;;;;;;5051311;28;20052;-81
2022/05/25 12:00:01;;;;;;;8.38;4.30;;;29.40;96.70;;;;;;5058267;28;20573;-79
2022/05/25 12:03:04;;;;;;;11.77;4.05;;;29.70;96.70;;;;;;5055387;28;20045;-78
2022/05/25 12:05:41;;;;;;;9.27;4.47;;;29.50;96.70;;;;;;5057923;28;20098;-79
2022/05/25 12:08:41;;;;;;;10.30;4.60;;;29.70;96.70;;;;;;5043595;28;21499;-79
2022/05/25 12:11:15;;;;;;;6.30;4.22;;;29.90;96.70;;;;;;5053426;28;20156;-78
2022/05/25 12:13:52;;;;;;;8.95;4.72;;;30.20;96.70;;;;;;5041974;28;20612;-79
2022/05/25 12:16:24;;;;;;;6.35;4.03;;;30.20;96.70;;;;;;5048704;28;20044;-78
2022/05/25 12:19:02;;;;;;;9.07;5.15;;;29.90;96.70;;;;;;5052765;28;20049;-76
2022/05/25 12:21:35;;;;;;;6.50;4.30;;;29.70;96.70;;;;;;5061229;28;20079;-78
2022/05/25 12:24:05;;;;;;;8.85;4.63;;;29.70;96.70;;;;;;5054737;28;20051;-78
2022/05/25 12:26:37;;;;;;;9.85;4.20;;;29.80;96.70;;;;;;5052791;28;20041;-79
2022/05/25 12:29:15;;;;;;;7.07;4.53;;;30.10;96.70;;;;;;5054912;28;20097;-79
2022/05/25 12:31:52;;;;;;;9.82;4.43;;;30.30;96.70;;;;;;5057364;28;20047;-78
2022/05/25 12:34:30;;;;;;;10.07;4.65;;;30.30;96.70;;;;;;5055438;28;20094;-77
2022/05/25 12:36:59;;;;;;;10.23;4.72;;;30.40;96.70;;;;;;5058257;28;20510;-79
2022/05/25 12:39:52;;;;;;;9.07;4.60;;;30.40;96.70;;;;;;5051836;28;20037;-78
2022/05/25 12:42:47;;;;;;;8.73;4.05;;;30.50;96.70;;;;;;5053576;28;20053;-78
2022/05/25 12:48:47;;;;;;;9.65;4.30;;;30.60;96.70;;;;;;5055616;28;20060;-75
2022/05/25 12:51:31;;;;;;;8.02;3.88;;;30.70;96.70;;;;;;5036916;28;20121;-77
2022/05/25 12:54:01;;;;;;;7.72;4.00;;;31.00;96.70;;;;;;5055423;28;20449;-76
2022/05/25 12:56:35;;;;;;;8.75;4.50;;;31.00;96.70;;;;;;5057234;28;20040;-77
2022/05/25 12:59:07;;;;;;;9.60;4.30;;;30.90;96.70;;;;;;5051814;28;20044;-77
2022/05/25 13:01:37;;;;;;;5.65;3.63;;;31.00;96.70;;;;;;5034087;28;20048;-77
2022/05/25 13:04:18;;;;;;;10.27;4.32;;;30.70;96.70;;;;;;5050809;28;20143;-77
2022/05/25 13:07:22;;;;;;;6.57;4.10;;;30.80;96.70;;;;;;5048524;28;20049;-77
2022/05/25 13:09:54;;;;;;;9.52;4.50;;;31.00;96.70;;;;;;5048329;28;20049;-77
2022/05/25 13:12:56;;;;;;;10.73;4.57;;;31.30;96.70;;;;;;5057683;28;20098;-77
2022/05/25 13:15:46;;;;;;;9.75;4.03;;;31.70;96.70;;;;;;4987963;28;20551;-78
2022/05/25 13:18:54;;;;;;;10.60;5.25;;;32.10;96.70;;;;;;4973191;28;20144;-78
2022/05/25 13:21:42;;;;;;;7.63;3.92;;;32.00;96.70;;;;;;4988197;28;20046;-77
2022/05/25 13:24:25;;;;;;;9.77;4.03;;;32.10;96.70;;;;;;5006730;28;20046;-77
2022/05/25 13:27:19;;;;;;;9.15;4.85;;;32.60;96.70;;;;;;4995955;28;20045;-79
2022/05/25 13:30:08;;;;;;;13.63;4.28;;;32.30;96.70;;;;;;4992443;28;20133;-77
2022/05/25 13:32:45;;;;;;;8.50;3.88;;;32.60;96.70;;;;;;5008865;28;20053;-78
2022/05/25 13:35:38;;;;;;;5.95;3.90;;;32.10;96.70;;;;;;4983099;28;20535;-77
2022/05/25 13:38:21;;;;;;;8.68;4.32;;;31.80;96.70;;;;;;5002686;28;20674;-77
2022/05/25 13:40:52;;;;;;;8.80;3.85;;;31.70;96.70;;;;;;4998595;28;20050;-77